Oscar Dyson — WTEP — position and weather

sailwx.info

Track history (hours):
 
Tides and Currents Weather Stations Pressure Air Temp Water Temp Dewpoint Dewpoint Depression Visibility Wind Speed Wind Dir Waves Ship Positions

Oceanographic research ship Oscar Dyson (USA)

Ship's website: http://www.moc.noaa.gov/od/

Detailed information on ship capabilities available from University of Delaware's Ocean Information Center and ARCUS's ALIAS (Arctic Logistics Information and Support) project.

Last reported at 2015-May-30 20:00 UTC. Time now 2015-May-30 20:38 UTC.
Position N 59°42' W 146°48'.

Type: Ship. MMSI: 369959000.

Wind from 240 at 13 knots

Barometer 1016.8 mb
Air temperature 11.3 ° C
Dewpoint 9.4 ° C
Water temperature 9.7 ° C

Date/timePositionNaut miles runAvg speedWind from/ knotsBaromVisibWave heightAir tempDewpointWater temp
2015-May-30 20:00N 59°42' W 146°48'3181.6 240 / 131016.8 11.3 9.4 9.7
2015-May-30 19:59N 59°42' W 146°42'9 8.7 250 / 111017.0 11.2 9.7
2015-May-30 19:00N 59°36' W 146°54'0 0.0 250 / 151016.9 10.4 8.5 9.8
2015-May-30 18:58N 59°36' W 146°54'1111.3 250 / 141017.1 9.9 9.8
2015-May-30 18:00N 59°42' W 147°12'3181.6 240 / 131016.7 10.1 8.410.1
2015-May-30 17:59N 59°42' W 147°06'1111.1 250 / 131016.9 10.0 10.2
2015-May-30 17:00N 59°48' W 147°24'3181.1 250 / 111017.0 9.6 8.1 9.9
2015-May-30 16:59N 59°48' W 147°18'1111.1 240 / 131017.2 10.1 10.1
2015-May-30 16:00N 59°42' W 147°36'0 0.0 240 / 121017.5 10.6 9.3 8.3
2015-May-30 15:59N 59°42' W 147°36'7 6.8 230 / 101017.6 10.7 8.2
2015-May-30 15:00N 59°36' W 147°30'6 6.1 250 / 131017.8 10.0 8.6 9.9
2015-May-30 14:00N 59°36' W 147°18'7201.8 240 / 151018.1 9.8 8.4 9.6
2015-May-30 13:58N 59°30' W 147°12'0 0.0 240 / 161018.3 9.9 9.6
2015-May-30 13:00N 59°30' W 147°12'391.4 260 / 141018.7 9.7 8.5 9.8
2015-May-30 12:58N 59°30' W 147°06'9 8.9 260 / 141018.8 9.7 9.7
2015-May-30 12:00N 59°24' W 147°18'0 0.0 250 / 191018.910.8 1.0 9.5 8.1-9.0
2015-May-30 11:58N 59°24' W 147°18'1111.3 250 / 191019.0 9.2 9.0
2015-May-30 11:00N 59°30' W 147°36'7201.9 250 / 201018.8 9.6 8.2 9.3
2015-May-30 10:58N 59°24' W 147°30'9 8.9 250 / 211019.0 9.6 9.3
2015-May-30 10:00N 59°30' W 147°42'0 0.0 250 / 181019.0 9.6 8.2 8.8
2015-May-30 09:59N 59°30' W 147°42'9 8.7 250 / 181019.2 9.7 9.0
2015-May-30 09:00N 59°36' W 147°54'3182.2 250 / 171018.9 9.3 8.1 8.6
2015-May-30 08:59N 59°36' W 147°48'1111.1 250 / 171019.1 9.4 8.5
2015-May-30 08:00N 59°42' W 148°06'3181.6 250 / 91019.3 10.0 8.810.1
2015-May-30 07:59N 59°42' W 148°00'1111.1 240 / 91019.5 10.0 10.0
2015-May-30 07:00N 59°48' W 148°18'3181.1 230 / 51019.7 9.9 8.7 9.9
2015-May-30 06:59N 59°48' W 148°12'1111.0 220 / 51019.8 9.9 9.9
2015-May-30 06:00N 59°54' W 148°30'3180.5 200 / 21020.0 10.4 9.010.2
2015-May-30 05:59N 59°54' W 148°24'1212.2 200 / 21020.1 10.4 9.9
2015-May-30 05:00N 59°54' W 148°48'7201.4 210 / 81020.1 11.1 9.011.8
2015-May-30 04:58N 59°48' W 148°42'1313.9 210 / 81020.4 11.3 11.4
2015-May-30 04:00N 59°54' W 149°06'3180.5 150 / 31020.5 11.9 9.312.3
2015-May-30 03:59N 59°54' W 149°00'6 6.1 160 / 41020.7 11.9 11.6
2015-May-30 03:00N 59°54' W 148°48'3180.5 160 / 51021.1 5.4 0.513.5 9.0-12.6
2015-May-30 02:59N 59°54' W 148°54'3 3.1 150 / 41021.0 11.6 12.3
2015-May-30 02:00N 59°54' W 148°48'6360.0 230 / 61021.6 10.9 8.711.4
2015-May-30 01:59N 59°48' W 148°48'11 5.5 210 / 51021.7 11.0 12.3
2015-May-30 00:00N 59°42' W 148°30'9 8.5 230 / 111022.3 10.4 8.610.1
2015-May-29 23:00N 59°36' W 148°18'6180.0 250 / 121022.6 10.3 8.6 9.1
2015-May-29 22:58N 59°30' W 148°18'6 6.3 250 / 111022.8 9.9 9.1
2015-May-29 22:00N 59°30' W 148°30'3182.7 240 / 141022.8 10.8 8.5 9.3
2015-May-29 21:59N 59°30' W 148°24'6 6.2 240 / 141023.1 11.0 9.3
2015-May-29 21:00N 59°30' W 148°36'3182.7 250 / 141022.8 10.5 8.6 9.5
2015-May-29 20:59N 59°30' W 148°30'1111.1 250 / 141023.0 10.5 9.5
2015-May-29 20:00N 59°36' W 148°48'3182.2 260 / 61022.7 11.3 8.710.3
2015-May-29 19:59N 59°36' W 148°42'9 8.7 260 / 61022.9 10.9 10.2
2015-May-29 19:00N 59°42' W 148°54'6180.0 110 / 21022.9 10.3 8.710.1
2015-May-29 18:58N 59°36' W 148°54'1313.9 140 / 21023.1 10.5 10.2
2015-May-29 18:00N 59°48' W 149°06'0 0.0 120 / 41023.1 10.6 9.1 9.9
2015-May-29 17:59N 59°48' W 149°06'9 8.6 140 / 41023.3 10.8 10.0
2015-May-29 17:00N 59°54' W 149°18'7201.4 090 / 41023.2 11.5 6.1 9.8
2015-May-29 16:58N 59°48' W 149°12'1111.2 090 / 41023.4 11.4 10.5
2015-May-29 16:00N 59°54' W 149°30'0 0.0 350 / 91023.3 13.7 3.410.9
2015-May-29 15:59N 59°54' W 149°30'20 6.8 350 / 91023.6 13.6 11.0
2015-May-29 13:00N 59°36' W 149°12'0 0.0 250 / 101023.8 10.2 8.6 9.8
2015-May-29 12:58N 59°36' W 149°12'9 8.8 260 / 91024.0 10.9 9.8
2015-May-29 12:00N 59°30' W 149°00'0 0.0 240 / 121024.0 9.7 8.0 9.6
2015-May-29 11:59N 59°30' W 149°00'0 0.0 240 / 121024.1 9.7 9.7
2015-May-29 11:00N 59°30' W 149°00'7201.9 250 / 111024.4 9.5 7.6 9.5
2015-May-29 10:58N 59°24' W 148°54'1212.6 240 / 121024.5 9.5 9.3
2015-May-29 10:00N 59°24' W 149°18'0 0.0 260 / 121024.4 9.4 7.510.2
2015-May-29 09:59N 59°24' W 149°18'9 8.7 250 / 131024.7 9.4 10.2
2015-May-29 09:00N 59°30' W 149°30'0 0.0 250 / 121024.5 9.2 7.6 9.4
2015-May-29 08:58N 59°30' W 149°30'9 8.8 250 / 131024.6 9.2 9.6
2015-May-29 08:00N 59°36' W 149°42'7403.6 230 / 81024.7 9.9 8.310.0
2015-May-29 07:59N 59°30' W 149°36'1515.3 230 / 81024.9 9.9 9.9
2015-May-29 07:00N 59°42' W 149°54'7201.7 360 / 21024.9 11.2 6.2 9.8
2015-May-29 06:58N 59°36' W 149°48'9 8.8 010 / 21025.1 11.3 9.8
2015-May-29 06:00N 59°30' W 149°36'391.4 230 / 91025.110.8 0.5 9.9 7.8-10.3
2015-May-29 05:58N 59°30' W 149°42'6 3.1 230 / 101025.0 10.0 10.3
2015-May-29 04:00N 59°24' W 149°42'7404.1 250 / 191025.5 9.6 6.5 8.4
2015-May-29 03:59N 59°18' W 149°36'7 6.8 250 / 191025.7 9.6 8.5
2015-May-29 03:00N 59°24' W 149°42'1515.1 240 / 131026.1 5.4 1.0 9.8 7.2-9.2
2015-May-29 02:00N 59°36' W 150°00'6360.0 220 / 61026.2 11.4 8.511.5
2015-May-29 01:59N 59°30' W 150°00'9 8.7 230 / 61026.4 11.2 11.5
2015-May-29 01:00N 59°24' W 150°12'0 0.0 230 / 51026.5 11.4 8.2 9.6
2015-May-29 00:59N 59°24' W 150°12'9 8.7 220 / 61026.7 11.2 9.4
2015-May-29 00:00N 59°18' W 150°00'3 3.1 230 / 191026.7 5.4 1.0 8.4 6.0-8.0
2015-May-28 23:00N 59°18' W 149°54'0 0.0 240 / 231026.6 8.6 5.9 8.3
2015-May-28 22:59N 59°18' W 149°54'6 6.1 240 / 221026.9 8.5 8.5
2015-May-28 22:00N 59°12' W 149°54'3184.3 250 / 201027.6 9.5 6.1 8.5
2015-May-28 21:59N 59°12' W 149°48'9 8.7 250 / 191027.8 9.4 8.6
2015-May-28 21:00N 59°06' W 150°00'1111.0 260 / 201027.6 8.5 5.8 8.5
2015-May-28 20:00N 59°12' W 150°18'3184.3 250 / 181027.1 8.3 5.9 8.1
2015-May-28 19:59N 59°12' W 150°12'9 8.7 250 / 211027.4 8.6 8.1
2015-May-28 19:00N 59°18' W 150°24'9 8.6 240 / 141026.8 8.4 6.0 8.3
2015-May-28 18:00N 59°12' W 150°36'0 0.0 250 / 171026.9 9.0 6.1 6.9
2015-May-28 17:59N 59°12' W 150°36'6 6.1 250 / 161027.2 9.0 6.9
2015-May-28 17:00N 59°06' W 150°36'3184.9 250 / 201026.9 7.9 5.7 8.1
2015-May-28 16:59N 59°06' W 150°30'3 3.1 250 / 221027.0 7.9 8.0
2015-May-28 16:00N 59°06' W 150°24'6360.0 250 / 221027.4 7.8 5.6 8.1
2015-May-28 15:59N 59°00' W 150°24'9 8.6 250 / 211027.5 7.8 8.0
2015-May-28 14:59N 58°54' W 150°12'9 8.6 270 / 231028.1 7.8 8.4
2015-May-28 13:59N 58°48' W 150°24'9 8.6 270 / 221028.4 7.8 8.0
2015-May-28 12:59N 58°54' W 150°36'9 8.6 280 / 211028.3 7.8 8.1
2015-May-28 11:59N 59°00' W 150°48'12 4.1 270 / 241027.9 7.8 8.3
2015-May-28 08:59N 59°00' W 151°12'3 3.1 260 / 211027.7 7.9 7.5
2015-May-28 08:00N 59°00' W 151°06'6360.0 260 / 191027.2 8.1 4.9 8.3
2015-May-28 07:59N 58°54' W 151°06'9 8.8 270 / 191027.5 8.1 8.2
2015-May-28 07:00N 58°48' W 150°54'0 0.0 260 / 71027.0 8.0 6.3 8.1
2015-May-28 06:59N 58°48' W 150°54'1111.3 260 / 41027.3 8.0 8.2
2015-May-28 06:00N 58°42' W 150°36'3187.0 240 / 51027.110.8 0.5 8.2 6.3-8.3
2015-May-28 05:59N 58°42' W 150°42'3 3.2 240 / 61027.1 8.2 8.3
2015-May-28 05:00N 58°42' W 150°48'6360.0 220 / 51026.7 8.2 6.2 8.4
2015-May-28 04:59N 58°36' W 150°48'3 3.2 230 / 51026.9 8.2 8.3
2015-May-28 04:00N 58°36' W 150°54'1111.1 220 / 91026.8 8.2 6.0 8.7
2015-May-28 03:00N 58°42' W 151°12'3187.0 210 / 121026.7 8.3 4.7 8.6
2015-May-28 02:59N 58°42' W 151°06'9 8.8 220 / 111026.9 8.5 8.6
2015-May-28 02:00N 58°48' W 151°18'9 8.6 210 / 71026.6 8.2 5.3 7.9
2015-May-28 01:00N 58°54' W 151°30'0 0.0 260 / 81026.6 8.8 5.4 7.6
2015-May-28 00:59N 58°54' W 151°30'3 3.2 240 / 101026.8 8.5 7.7
2015-May-28 00:00N 58°54' W 151°36'1313.5 270 / 181026.7 9.1 4.3 7.8
2015-May-27 23:00N 59°06' W 151°48'6360.0 240 / 131026.9 8.8 3.8 7.3
2015-May-27 22:59N 59°00' W 151°48'1414.0 250 / 141027.2 8.7 7.3
2015-May-27 22:00N 59°06' W 152°12'1413.7 230 / 161026.4 8.3 3.6 7.6
2015-May-27 21:00N 59°00' W 151°48'6 6.0 230 / 131026.610.8 0.5 7.8 3.0-7.4
2015-May-27 20:00N 58°54' W 151°48'2010.1 260 / 141026.3 7.9 2.7 7.6
2015-May-27 18:00N 58°36' W 151°30'6 6.3 280 / 111026.2 7.8 4.0 7.4
2015-May-27 17:00N 58°36' W 151°18'0 0.0 290 / 61026.1 7.7 4.5 7.9
2015-May-27 16:59N 58°36' W 151°18'1413.8 280 / 71026.4 7.7 7.9
2015-May-27 16:00N 58°24' W 151°06'6 6.3 250 / 61026.1 7.3 5.5 7.5
2015-May-27 15:00N 58°24' W 151°18'3188.6 030 / 51025.910.8 0.5 8.0 5.1-8.0
2015-May-27 14:59N 58°24' W 151°24'3 3.2 020 / 51026.1 7.4 8.0
2015-May-27 14:00N 58°24' W 151°30'7 6.8 220 / 81026.0 7.3 5.6 7.8
2015-May-27 13:00N 58°18' W 151°24'0 0.0 210 / 111026.2 7.3 5.3 7.6
2015-May-27 12:59N 58°18' W 151°24'7 6.9 210 / 111026.4 7.3 7.8
2015-May-27 12:00N 58°12' W 151°30'1515.3 220 / 111026.3 7.2 5.8 7.4
2015-May-27 11:00N 58°24' W 151°48'6360.0 260 / 21026.1 7.2 5.5 7.1
2015-May-27 10:59N 58°18' W 151°48'7 6.9 260 / 21026.3 7.3 7.1
2015-May-27 10:00N 58°24' W 151°54'9 8.7 240 / 71026.1 7.3 3.8 7.0
2015-May-27 09:00N 58°30' W 151°42'7 6.8 310 / 91025.6 5.4 0.5 9.0 3.4-8.1
2015-May-27 08:00N 58°36' W 151°48'9 8.7 300 / 81025.5 8.0 2.9 7.9
2015-May-27 07:00N 58°42' W 152°00'9 8.6 260 / 51025.2 8.1 3.3 7.8
2015-May-27 06:00N 58°48' W 152°12'6 6.2 240 / 81024.6 8.1 3.7 7.5
2015-May-27 05:00N 58°48' W 152°24'7 6.8 180 / 71024.4 8.1 5.6 7.3
2015-May-27 04:00N 58°54' W 152°30'7 6.8 170 / 131024.1 8.2 5.8 7.4
2015-May-27 03:00N 58°48' W 152°36'0 0.0 170 / 121024.0 8.7 4.7 7.8
2015-May-27 02:59N 58°48' W 152°36'9 8.8 160 / 111024.2 8.6 7.8
2015-May-27 02:00N 58°42' W 152°48'3 3.1 200 / 101023.9 9.3 4.9 7.4
2015-May-27 01:00N 58°42' W 152°54'6360.0 240 / 131023.6 9.7 4.6 7.3
2015-May-27 00:59N 58°36' W 152°54'6 6.1 230 / 121023.8 10.1 7.4
2015-May-27 00:00N 58°30' W 152°54'1312.5 220 / 131023.8 5.4 0.510.5 4.0-7.8
2015-May-26 23:00N 58°30' W 153°18'1212.4 210 / 131023.3 8.0 4.1 7.8
2015-May-26 22:00N 58°18' W 153°24'6 6.3 210 / 161023.5 8.5 4.1 7.6
2015-May-26 21:00N 58°18' W 153°36'6360.0 220 / 151023.0 8.2 4.4 7.8
2015-May-26 20:59N 58°12' W 153°36'3 3.2 210 / 151023.2 8.3 7.9
2015-May-26 20:00N 58°12' W 153°42'1413.6 210 / 161022.9 8.0 4.2 7.5
2015-May-26 19:00N 58°00' W 153°54'7 6.8 220 / 131022.7 7.2 3.1 7.2
2015-May-26 18:00N 57°54' W 154°00'3191.3 220 / 91022.510.8 0.5 8.0 -7.0
2015-May-26 17:59N 57°54' W 154°06'3 3.2 220 / 81022.5 8.1 7.0
2015-May-26 17:00N 57°54' W 154°12'9 8.8 220 / 91022.5 7.4 3.5 7.6
2015-May-26 16:00N 57°48' W 154°24'9 8.8 210 / 81022.1 8.0 3.2 7.3
2015-May-26 15:00N 57°42' W 154°36'9 8.8 190 / 81021.8 6.6 7.1
2015-May-26 14:00N 57°36' W 154°48'0 0.0 160 / 81021.5 6.4 3.9 7.0
2015-May-26 13:59N 57°36' W 154°48'7 6.9 150 / 81021.7 6.3 6.9
2015-May-26 13:00N 57°30' W 154°42'3 3.2 140 / 81021.6 6.0 3.6 6.9
2015-May-26 12:00N 57°30' W 154°36'3193.4 140 / 91021.510.8 0.5 6.0 3.8-6.9
2015-May-26 11:59N 57°30' W 154°42'3 3.3 140 / 91021.7 6.1 6.9
2015-May-26 11:00N 57°30' W 154°48'3 3.2 160 / 71021.9 6.6 4.3 6.9
2015-May-26 10:00N 57°30' W 154°54'0 0.0 190 / 71021.6 6.8 3.9 6.9
2015-May-26 09:59N 57°30' W 154°54'0 0.0 190 / 91021.8 6.9 6.9
2015-May-26 09:00N 57°30' W 154°54'7 6.8 200 / 81021.5 7.0 3.6 6.9
2015-May-26 08:00N 57°36' W 155°00'0 0.0 190 / 71021.0 7.0 3.8 7.1
2015-May-26 07:00N 57°36' W 155°00'3 3.2 210 / 81020.9 7.0 3.8 7.3
2015-May-26 06:00N 57°36' W 155°06'3 3.2 210 / 91020.7 7.3 3.9 7.0
2015-May-26 05:00N 57°36' W 155°00'9 8.8 200 / 91020.7 7.7 4.0 7.2
2015-May-26 04:00N 57°42' W 155°12'7408.3 210 / 111020.4 8.0 4.7 7.9
2015-May-26 03:59N 57°36' W 155°06'7 6.9 210 / 111020.7 8.0 7.8
2015-May-26 03:00N 57°42' W 155°12'7408.3 220 / 101020.3 7.7 4.7 7.8
2015-May-26 02:59N 57°36' W 155°06'9 8.9 210 / 101020.5 7.9 7.8
2015-May-26 02:00N 57°42' W 155°18'3192.4 220 / 121020.3 7.4 4.4 7.8
2015-May-26 01:59N 57°42' W 155°12'3 3.3 220 / 121020.5 7.4 7.6
2015-May-26 01:00N 57°42' W 155°18'0 0.0 210 / 111020.3 8.0 5.0 7.6
2015-May-26 00:00N 57°42' W 155°18'7 6.8 220 / 111020.3 8.2 4.6 7.9
2015-May-25 23:00N 57°36' W 155°12'0 0.0 210 / 111020.2 7.8 4.1 7.8
2015-May-25 22:58N 57°36' W 155°12'7 7.0 200 / 101020.5 7.4 7.8
2015-May-25 22:00N 57°30' W 155°06'396.7 200 / 111019.9 7.5 4.2 7.3
2015-May-25 21:58N 57°30' W 155°00'25 8.4 200 / 121020.1 7.5 7.2
2015-May-25 19:00N 57°06' W 154°48'0 0.0 220 / 71019.1 7.0 5.0 6.9
2015-May-25 18:59N 57°06' W 154°48'7 6.9 240 / 71019.4 7.4 6.9
2015-May-25 18:00N 57°12' W 154°54'0 0.0 240 / 91018.6 6.5 4.5 6.8
2015-May-25 17:59N 57°12' W 154°54'9 9.0 240 / 81018.8 6.6 6.8
2015-May-25 17:00N 57°18' W 155°06'7409.3 230 / 111017.8 6.5 5.2 6.9
2015-May-25 16:59N 57°12' W 155°00'1413.9 220 / 111018.2 6.4 6.9
2015-May-25 16:00N 57°24' W 155°12'6360.0 160 / 41017.4 6.3 5.1 6.6
2015-May-25 15:59N 57°18' W 155°12'7 6.9 170 / 41017.7 6.2 6.6
2015-May-25 15:00N 57°24' W 155°18'0 0.0 210 / 71017.0 6.2 4.5 6.6
2015-May-25 14:59N 57°24' W 155°18'9 9.0 200 / 91017.1 6.2 6.6
2015-May-25 14:00N 57°30' W 155°30'7408.8 170 / 71016.7 6.1 4.5 6.8
2015-May-25 13:59N 57°24' W 155°24'10 9.9 180 / 61016.9 6.1 6.8
2015-May-25 13:00N 57°24' W 155°42'7409.1 190 / 111016.5 6.1 4.6 6.8
2015-May-25 12:59N 57°18' W 155°36'3 3.3 170 / 91016.6 6.1 6.8
2015-May-25 12:00N 57°18' W 155°30'6360.0 190 / 111016.6 6.7 4.7 6.7
2015-May-25 11:59N 57°12' W 155°30'3 3.3 200 / 131016.7 6.4 6.8
2015-May-25 11:00N 57°12' W 155°24'0 0.0 190 / 121016.6 6.8 4.8 6.8
2015-May-25 10:59N 57°12' W 155°24'7 6.9 190 / 111016.8 6.8 6.8
2015-May-25 10:00N 57°06' W 155°18'3195.5 190 / 121016.5 6.7 5.3 6.8
2015-May-25 09:59N 57°06' W 155°12'9 9.0 190 / 121016.7 6.7 6.8
2015-May-25 09:00N 57°00' W 155°00'3196.1 180 / 131016.6 5.4 0.5 7.5 5.4-6.9
2015-May-25 08:59N 57°00' W 155°06'3 3.3 180 / 121016.6 6.6 6.9
2015-May-25 08:00N 57°00' W 155°00'0 0.0 210 / 111016.4 6.6 5.2 6.8
2015-May-25 07:59N 57°00' W 155°00'12 6.1 210 / 121016.6 6.4 6.9
2015-May-25 06:00N 56°48' W 155°00'6360.0 230 / 81015.6 6.6 5.0 6.6
2015-May-25 05:59N 56°42' W 155°00'7 7.0 220 / 81015.9 6.6 6.6
2015-May-25 05:00N 56°48' W 155°06'3197.1 230 / 111015.3 6.6 5.7 6.8
2015-May-25 04:59N 56°48' W 155°00'9 9.0 230 / 101015.5 6.6 6.6
2015-May-25 04:00N 56°54' W 155°12'0 0.0 210 / 81015.2 6.6 5.9 6.9
2015-May-25 03:59N 56°54' W 155°12'0 0.0 220 / 71015.4 6.5 6.9
2015-May-25 03:00N 56°54' W 155°12'3196.6 190 / 51015.2 5.4 0.5 7.0 5.5-6.9
2015-May-25 02:59N 56°54' W 155°18'9 9.0 190 / 51015.2 6.7 6.9
2015-May-25 02:00N 57°00' W 155°30'3196.1 150 / 71015.4 6.9 5.9 6.9
2015-May-25 01:59N 57°00' W 155°24'1111.7 150 / 71015.6 6.9 6.9
2015-May-25 01:00N 57°06' W 155°42'3195.5 140 / 71015.8 7.0 5.6 6.9
2015-May-25 00:59N 57°06' W 155°36'7 6.9 140 / 71016.0 6.9 6.9
2015-May-25 00:00N 57°12' W 155°42'10 9.8 140 / 91015.9 5.4 0.5 8.0 5.4-6.8
2015-May-24 23:00N 57°12' W 156°00'7409.6 150 / 111016.1 6.8 5.5 6.8
2015-May-24 22:59N 57°06' W 155°54'3 3.3 150 / 111016.4 6.8 6.8
2015-May-24 22:00N 57°06' W 156°00'0 0.0 170 / 61016.4 7.0 5.5 6.8
2015-May-24 21:59N 57°06' W 156°00'7 6.9 170 / 61016.5 7.1 6.6
2015-May-24 21:00N 57°00' W 155°54'3196.1 150 / 81016.4 7.2 6.0 6.8
2015-May-24 20:59N 57°00' W 155°48'7 7.0 150 / 81016.6 7.1 6.8
2015-May-24 20:00N 56°54' W 155°42'0 0.0 140 / 61016.6 6.7 5.5 6.5
2015-May-24 19:59N 56°54' W 155°42'0 0.0 140 / 71016.7 6.8 6.5
2015-May-24 19:00N 56°54' W 155°42'7410.3 150 / 91016.6 6.7 5.3 6.5
2015-May-24 18:59N 56°48' W 155°36'7 6.7 140 / 71016.7 6.6 6.5
2015-May-24 18:00N 56°48' W 155°24'7 6.8 140 / 71016.5 6.5 5.3 6.5
2015-May-24 17:00N 56°42' W 155°18'0 0.0 150 / 71016.6 6.4 5.4 6.3
2015-May-24 16:59N 56°42' W 155°18'6 6.1 150 / 81016.8 6.4 6.3
2015-May-24 16:00N 56°36' W 155°18'3198.2 160 / 111016.4 6.6 5.6 6.4
2015-May-24 15:59N 56°36' W 155°12'9 9.1 160 / 101016.6 6.5 6.4
2015-May-24 15:00N 56°30' W 155°24'9 8.9 150 / 91016.2 6.7 5.5 6.4
2015-May-24 14:00N 56°36' W 155°36'0 0.0 170 / 101015.9 6.5 5.4 6.5
2015-May-24 13:59N 56°36' W 155°36'7 7.0 170 / 91016.1 6.6 6.5
2015-May-24 13:00N 56°42' W 155°42'0 0.0 180 / 131015.4 6.8 5.4 6.5
2015-May-24 12:59N 56°42' W 155°42'9 9.1 180 / 121015.7 6.8 6.5
2015-May-24 12:00N 56°48' W 155°54'7410.6 180 / 121015.3 6.8 5.3 6.4
2015-May-24 11:59N 56°42' W 155°48'9 9.1 170 / 131015.7 6.8 6.4
2015-May-24 11:00N 56°48' W 156°00'7 6.8 160 / 131015.5 6.5 5.3 6.4
2015-May-24 10:00N 56°54' W 156°06'9 8.9 190 / 141014.8 6.1 5.0 6.4
2015-May-24 09:00N 57°00' W 156°18'9 8.9 170 / 151014.4 6.6 5.2 6.4
2015-May-24 08:00N 56°54' W 156°30'3196.6 170 / 161014.0 6.8 5.7 6.3
2015-May-24 07:59N 56°54' W 156°24'3 3.3 180 / 181014.4 6.6 6.3
2015-May-24 07:00N 56°54' W 156°30'9 8.9 170 / 131013.4 6.8 6.2 6.4
2015-May-24 06:00N 56°48' W 156°18'7410.6 180 / 151012.8 6.9 6.3 6.5
2015-May-24 05:59N 56°42' W 156°12'3 3.3 180 / 141013.1 6.7 6.5
2015-May-24 05:00N 56°42' W 156°06'6360.0 160 / 201012.2 7.1 6.5 6.4
2015-May-24 04:59N 56°36' W 156°06'3 3.4 160 / 201012.4 7.1 6.4
2015-May-24 04:00N 56°36' W 156°00'9 8.9 150 / 201011.8 7.7 7.1 6.4
2015-May-24 03:00N 56°30' W 155°48'7 6.9 160 / 231011.7 7.1 6.3 6.6
2015-May-24 02:00N 56°24' W 155°42'3 3.3 150 / 231012.1 7.4 6.4 6.6
2015-May-24 01:00N 56°24' W 155°36'9 9.0 160 / 231012.2 6.9 6.0 6.5
2015-May-24 00:00N 56°18' W 155°48'3 3.3 150 / 231011.9 6.7 5.7 6.5
2015-May-23 23:00N 56°18' W 155°54'3199.7 150 / 241011.5 6.9 5.5 6.5
2015-May-23 22:59N 56°18' W 155°48'9 9.1 150 / 221011.7 6.9 6.5
2015-May-23 22:00N 56°24' W 156°00'3 3.3 150 / 231011.9 7.0 5.5 6.5
2015-May-23 21:00N 56°24' W 156°06'7 6.9 150 / 221011.7 7.0 5.5 6.4
2015-May-23 20:00N 56°30' W 156°12'9 8.9 150 / 191011.7 6.7 5.3 6.4
2015-May-23 19:00N 56°36' W 156°24'3 3.3 150 / 221011.1 6.8 5.3 6.6
2015-May-23 18:00N 56°36' W 156°30'9 8.9 160 / 251011.3 6.2 4.6 6.6
2015-May-23 17:00N 56°42' W 156°42'0 0.0 150 / 191011.4 6.5 4.9 6.3
2015-May-23 16:00N 56°42' W 156°42'3 3.3 140 / 211011.3 6.8 4.9 6.4
2015-May-23 15:00N 56°42' W 156°48'6360.0 150 / 231010.8 6.7 4.7 6.0
2015-May-23 14:59N 56°36' W 156°48'3 3.4 150 / 261011.1 6.7 6.0
2015-May-23 14:00N 56°36' W 156°54'9 8.9 140 / 181011.2 7.9 5.2 6.0
2015-May-23 13:00N 56°30' W 156°42'0 0.0 160 / 221011.1 6.8 4.6 6.3
2015-May-23 12:59N 56°30' W 156°42'9 9.1 150 / 211011.3 6.8 6.3
2015-May-23 12:00N 56°24' W 156°30'3 3.3 150 / 201012.0 7.0 4.6 6.5
2015-May-23 11:00N 56°24' W 156°24'7 6.9 170 / 211012.1 6.8 4.4 6.6
2015-May-23 10:00N 56°18' W 156°18'7 6.9 160 / 211012.3 7.1 5.3 6.5
2015-May-23 09:00N 56°12' W 156°12'9 9.0 180 / 201012.2 7.1 4.5 6.6
2015-May-23 08:00N 56°06' W 156°00'6 6.0 190 / 231012.2 7.1 4.3 6.6
2015-May-23 07:00N 56°12' W 156°00'6360.0 210 / 231010.5 7.0 4.6 6.6
2015-May-23 06:59N 56°06' W 156°00'12 4.2 210 / 191010.7 6.9 6.6
2015-May-23 04:00N 55°54' W 155°54'3 3.4 170 / 281008.4 7.3 5.7 6.4
2015-May-23 03:00N 55°54' W 156°00'9 9.0 150 / 241008.0 7.4 7.1 6.3
2015-May-23 02:00N 56°00' W 156°12'9 9.0 130 / 241009.0 7.3 7.1 6.4
2015-May-23 01:00N 56°06' W 156°24'7 6.9 120 / 231009.5 7.4 7.1 6.9
2015-May-23 00:00N 56°12' W 156°30'9 9.0 110 / 251010.7 7.5 7.1 6.6
2015-May-22 23:00N 56°18' W 156°42'9 9.0 100 / 241011.9 7.3 7.0 6.5
2015-May-22 22:00N 56°24' W 156°54'9 9.0 100 / 221013.0 7.4 6.8 6.5
2015-May-22 21:00N 56°18' W 157°06'7 6.7 110 / 191013.6 7.1 6.6 6.3
2015-May-22 20:00N 56°18' W 157°18'9 9.0 100 / 201014.5 7.2 6.8 6.3
2015-May-22 19:00N 56°12' W 157°06'9 9.0 110 / 151015.5 7.1 6.6 6.4
2015-May-22 18:00N 56°06' W 156°54'14 6.9 120 / 171016.3 2.2 0.5 7.0 6.5 6.4
2015-May-22 16:00N 55°54' W 156°42'1010.1 110 / 151016.3 7.0 6.6 6.3
2015-May-22 15:00N 55°54' W 156°24'7 6.9 130 / 111016.8 7.6 7.1 6.4
2015-May-22 14:00N 55°48' W 156°18'3 3.4 120 / 121017.2 7.0 6.6 6.6
2015-May-22 13:00N 55°48' W 156°12'9 9.0 110 / 141017.1 7.1 6.7 6.9
2015-May-22 12:00N 55°42' W 156°00'9 9.0 120 / 131017.8 7.1 6.7 6.9
2015-May-22 11:00N 55°36' W 155°48'7 6.9 120 / 161018.1 7.1 6.6 6.9
2015-May-22 10:00N 55°30' W 155°54'0 0.0 120 / 161018.4 7.2 6.7 6.9
2015-May-22 09:00N 55°30' W 155°54'1010.2 090 / 131018.5 5.4 1.0 8.0 7.0-6.8
2015-May-22 08:00N 55°30' W 156°12'9 9.1 110 / 151018.8 7.1 6.9 6.9
2015-May-22 07:00N 55°36' W 156°24'6 6.0 110 / 171018.6 7.1 6.8 6.5
2015-May-22 06:00N 55°42' W 156°24'9 9.0 100 / 131018.3 0.3 0.5 7.0 6.8-6.5
2015-May-22 05:00N 55°48' W 156°36'9 9.0 110 / 141018.2 7.0 6.8 6.4
2015-May-22 04:00N 55°54' W 156°48'3 3.4 100 / 131018.1 7.0 6.8 6.5
2015-May-22 03:00N 55°54' W 156°54'9 9.0 100 / 121018.2 7.0 6.8 6.6
2015-May-22 02:00N 56°00' W 157°06'9 9.0 110 / 121018.1 7.0 6.8 6.5
2015-May-22 01:00N 56°06' W 157°18'7 6.9 100 / 111018.6 7.0 7.0 6.5
2015-May-22 00:00N 56°12' W 157°24'3 3.3 100 / 121018.3 7.1 6.8 6.3
2015-May-21 23:00N 56°12' W 157°30'9 9.0 110 / 151018.1 7.0 6.8 6.1
2015-May-21 22:00N 56°06' W 157°42'9 9.0 100 / 111017.8 7.1 6.8 6.2
2015-May-21 21:00N 56°00' W 157°30'7 6.9 090 / 121017.6 7.1 7.0 6.3
2015-May-21 20:00N 55°54' W 157°24'7 6.7 090 / 111017.4 6.9 6.8 6.2
2015-May-21 19:00N 55°54' W 157°12'9 9.0 100 / 101016.9 6.9 6.8 6.5
2015-May-21 18:00N 55°48' W 157°00'1413.8 100 / 101016.6 6.9 6.7 6.3
2015-May-21 17:00N 55°36' W 156°48'9 9.1 130 / 101016.4 6.8 6.6 6.6
2015-May-21 16:00N 55°30' W 156°36'0 0.0 120 / 111015.7 6.9 6.7 6.3
2015-May-21 15:00N 55°30' W 156°36'9 9.1 110 / 111014.8 6.9 6.8 6.3
2015-May-21 14:00N 55°24' W 156°24'9 9.1 130 / 121014.6 6.9 6.7 6.6
2015-May-21 13:00N 55°18' W 156°12'6 6.0 130 / 111014.4 6.9 6.9 6.6
2015-May-21 12:00N 55°12' W 156°12'7 6.8 140 / 131013.8 2.2 0.5 6.6 6.6-6.5
2015-May-21 11:00N 55°12' W 156°24'9 9.1 140 / 91013.8 6.7 6.5 6.6
2015-May-21 10:00N 55°18' W 156°36'7 6.9 170 / 51013.6 6.7 6.5 6.2
2015-May-21 09:00N 55°24' W 156°42'3 3.4 160 / 41013.2 5.4 6.6 6.1
2015-May-21 08:00N 55°24' W 156°48'9 9.2 190 / 71013.1 6.5 6.3 6.2
2015-May-21 07:01N 55°30' W 157°00'7413.6 170 / 61012.7 6.5 6.3
2015-May-21 07:00N 55°36' W 157°06'3 3.4 160 / 51012.3 6.5 6.3 6.3
2015-May-21 06:01N 55°36' W 157°12'7413.4 150 / 51012.3 6.5 6.5
2015-May-21 06:00N 55°42' W 157°18'0 0.0 160 / 51012.0 6.5 6.2 6.5
2015-May-21 05:00N 55°42' W 157°18'9 9.0 170 / 71011.6 6.6 6.3 6.5
2015-May-21 04:00N 55°48' W 157°30'1212.5 160 / 71011.0 6.7 6.4 6.4
2015-May-21 03:00N 56°00' W 157°36'1211.7 160 / 91010.5 0.0 0.5 7.1 6.3-6.2
2015-May-21 02:00N 56°06' W 157°54'1211.7 130 / 91010.3 6.3 5.8 5.4
2015-May-21 01:00N 56°12' W 158°12'3200.3 150 / 71009.8 6.9 6.4 6.0
2015-May-21 00:59N 56°12' W 158°06'0 0.0 130 / 51010.1 6.7 6.2
2015-May-21 00:00N 56°12' W 158°06'3 3.3 150 / 91009.7 2.2 7.4 6.9-6.0
2015-May-20 23:00N 56°12' W 158°12'0 0.0 150 / 81009.5 6.9 6.3 6.2
2015-May-20 22:00N 56°12' W 158°12'0 0.0 160 / 71009.2 7.3 6.9 5.9
2015-May-20 21:00N 56°12' W 158°12'0 0.0 180 / 51008.9 7.1 6.5 6.1
2015-May-20 20:00N 56°12' W 158°12'   170 / 51008.6 7.1 6.5 5.9
Track history (hours):
 
Tides and Currents Weather Stations Pressure Air Temp Water Temp Dewpoint Dewpoint Depression Visibility Wind Speed Wind Dir Waves Ship Positions

Oceanographic research ship Oscar Dyson (USA)

Ship's website: http://www.moc.noaa.gov/od/

Detailed information on ship capabilities available from University of Delaware's Ocean Information Center and ARCUS's ALIAS (Arctic Logistics Information and Support) project.

Last reported at 2015-May-30 20:00 UTC. Time now 2015-May-30 20:38 UTC.
Position N 59°42' W 146°48'.

Type: Ship. MMSI: 369959000.

Wind from 240 at 13 knots

Barometer 1016.8 mb
Air temperature 11.3 ° C
Dewpoint 9.4 ° C
Water temperature 9.7 ° C

Date/timePositionNaut miles runAvg speedWind from/ knotsBaromVisibWave heightAir tempDewpointWater temp
2015-May-30 20:00N 59°42' W 146°48'3181.6 240 / 131016.8 11.3 9.4 9.7
2015-May-30 19:59N 59°42' W 146°42'9 8.7 250 / 111017.0 11.2 9.7
2015-May-30 19:00N 59°36' W 146°54'0 0.0 250 / 151016.9 10.4 8.5 9.8
2015-May-30 18:58N 59°36' W 146°54'1111.3 250 / 141017.1 9.9 9.8
2015-May-30 18:00N 59°42' W 147°12'3181.6 240 / 131016.7 10.1 8.410.1
2015-May-30 17:59N 59°42' W 147°06'1111.1 250 / 131016.9 10.0 10.2
2015-May-30 17:00N 59°48' W 147°24'3181.1 250 / 111017.0 9.6 8.1 9.9
2015-May-30 16:59N 59°48' W 147°18'1111.1 240 / 131017.2 10.1 10.1
2015-May-30 16:00N 59°42' W 147°36'0 0.0 240 / 121017.5 10.6 9.3 8.3
2015-May-30 15:59N 59°42' W 147°36'7 6.8 230 / 101017.6 10.7 8.2
2015-May-30 15:00N 59°36' W 147°30'6 6.1 250 / 131017.8 10.0 8.6 9.9
2015-May-30 14:00N 59°36' W 147°18'7201.8 240 / 151018.1 9.8 8.4 9.6
2015-May-30 13:58N 59°30' W 147°12'0 0.0 240 / 161018.3 9.9 9.6
2015-May-30 13:00N 59°30' W 147°12'391.4 260 / 141018.7 9.7 8.5 9.8
2015-May-30 12:58N 59°30' W 147°06'9 8.9 260 / 141018.8 9.7 9.7
2015-May-30 12:00N 59°24' W 147°18'0 0.0 250 / 191018.910.8 1.0 9.5 8.1-9.0
2015-May-30 11:58N 59°24' W 147°18'1111.3 250 / 191019.0 9.2 9.0
2015-May-30 11:00N 59°30' W 147°36'7201.9 250 / 201018.8 9.6 8.2 9.3
2015-May-30 10:58N 59°24' W 147°30'9 8.9 250 / 211019.0 9.6 9.3
2015-May-30 10:00N 59°30' W 147°42'0 0.0 250 / 181019.0 9.6 8.2 8.8
2015-May-30 09:59N 59°30' W 147°42'9 8.7 250 / 181019.2 9.7 9.0
2015-May-30 09:00N 59°36' W 147°54'3182.2 250 / 171018.9 9.3 8.1 8.6
2015-May-30 08:59N 59°36' W 147°48'1111.1 250 / 171019.1 9.4 8.5
2015-May-30 08:00N 59°42' W 148°06'3181.6 250 / 91019.3 10.0 8.810.1
2015-May-30 07:59N 59°42' W 148°00'1111.1 240 / 91019.5 10.0 10.0
2015-May-30 07:00N 59°48' W 148°18'3181.1 230 / 51019.7 9.9 8.7 9.9
2015-May-30 06:59N 59°48' W 148°12'1111.0 220 / 51019.8 9.9 9.9
2015-May-30 06:00N 59°54' W 148°30'3180.5 200 / 21020.0 10.4 9.010.2
2015-May-30 05:59N 59°54' W 148°24'1212.2 200 / 21020.1 10.4 9.9
2015-May-30 05:00N 59°54' W 148°48'7201.4 210 / 81020.1 11.1 9.011.8
2015-May-30 04:58N 59°48' W 148°42'1313.9 210 / 81020.4 11.3 11.4
2015-May-30 04:00N 59°54' W 149°06'3180.5 150 / 31020.5 11.9 9.312.3
2015-May-30 03:59N 59°54' W 149°00'6 6.1 160 / 41020.7 11.9 11.6
2015-May-30 03:00N 59°54' W 148°48'3180.5 160 / 51021.1 5.4 0.513.5 9.0-12.6
2015-May-30 02:59N 59°54' W 148°54'3 3.1 150 / 41021.0 11.6 12.3
2015-May-30 02:00N 59°54' W 148°48'6360.0 230 / 61021.6 10.9 8.711.4
2015-May-30 01:59N 59°48' W 148°48'11 5.5 210 / 51021.7 11.0 12.3
2015-May-30 00:00N 59°42' W 148°30'9 8.5 230 / 111022.3 10.4 8.610.1
2015-May-29 23:00N 59°36' W 148°18'6180.0 250 / 121022.6 10.3 8.6 9.1
2015-May-29 22:58N 59°30' W 148°18'6 6.3 250 / 111022.8 9.9 9.1
2015-May-29 22:00N 59°30' W 148°30'3182.7 240 / 141022.8 10.8 8.5 9.3
2015-May-29 21:59N 59°30' W 148°24'6 6.2 240 / 141023.1 11.0 9.3
2015-May-29 21:00N 59°30' W 148°36'3182.7 250 / 141022.8 10.5 8.6 9.5
2015-May-29 20:59N 59°30' W 148°30'1111.1 250 / 141023.0 10.5 9.5
2015-May-29 20:00N 59°36' W 148°48'3182.2 260 / 61022.7 11.3 8.710.3
2015-May-29 19:59N 59°36' W 148°42'9 8.7 260 / 61022.9 10.9 10.2
2015-May-29 19:00N 59°42' W 148°54'6180.0 110 / 21022.9 10.3 8.710.1
2015-May-29 18:58N 59°36' W 148°54'1313.9 140 / 21023.1 10.5 10.2
2015-May-29 18:00N 59°48' W 149°06'0 0.0 120 / 41023.1 10.6 9.1 9.9
2015-May-29 17:59N 59°48' W 149°06'9 8.6 140 / 41023.3 10.8 10.0
2015-May-29 17:00N 59°54' W 149°18'7201.4 090 / 41023.2 11.5 6.1 9.8
2015-May-29 16:58N 59°48' W 149°12'1111.2 090 / 41023.4 11.4 10.5
2015-May-29 16:00N 59°54' W 149°30'0 0.0 350 / 91023.3 13.7 3.410.9
2015-May-29 15:59N 59°54' W 149°30'20 6.8 350 / 91023.6 13.6 11.0
2015-May-29 13:00N 59°36' W 149°12'0 0.0 250 / 101023.8 10.2 8.6 9.8
2015-May-29 12:58N 59°36' W 149°12'9 8.8 260 / 91024.0 10.9 9.8
2015-May-29 12:00N 59°30' W 149°00'0 0.0 240 / 121024.0 9.7 8.0 9.6
2015-May-29 11:59N 59°30' W 149°00'0 0.0 240 / 121024.1 9.7 9.7
2015-May-29 11:00N 59°30' W 149°00'7201.9 250 / 111024.4 9.5 7.6 9.5
2015-May-29 10:58N 59°24' W 148°54'1212.6 240 / 121024.5 9.5 9.3
2015-May-29 10:00N 59°24' W 149°18'0 0.0 260 / 121024.4 9.4 7.510.2
2015-May-29 09:59N 59°24' W 149°18'9 8.7 250 / 131024.7 9.4 10.2
2015-May-29 09:00N 59°30' W 149°30'0 0.0 250 / 121024.5 9.2 7.6 9.4
2015-May-29 08:58N 59°30' W 149°30'9 8.8 250 / 131024.6 9.2 9.6
2015-May-29 08:00N 59°36' W 149°42'7403.6 230 / 81024.7 9.9 8.310.0
2015-May-29 07:59N 59°30' W 149°36'1515.3 230 / 81024.9 9.9 9.9
2015-May-29 07:00N 59°42' W 149°54'7201.7 360 / 21024.9 11.2 6.2 9.8
2015-May-29 06:58N 59°36' W 149°48'9 8.8 010 / 21025.1 11.3 9.8
2015-May-29 06:00N 59°30' W 149°36'391.4 230 / 91025.110.8 0.5 9.9 7.8-10.3
2015-May-29 05:58N 59°30' W 149°42'6 3.1 230 / 101025.0 10.0 10.3
2015-May-29 04:00N 59°24' W 149°42'7404.1 250 / 191025.5 9.6 6.5 8.4
2015-May-29 03:59N 59°18' W 149°36'7 6.8 250 / 191025.7 9.6 8.5
2015-May-29 03:00N 59°24' W 149°42'1515.1 240 / 131026.1 5.4 1.0 9.8 7.2-9.2
2015-May-29 02:00N 59°36' W 150°00'6360.0 220 / 61026.2 11.4 8.511.5
2015-May-29 01:59N 59°30' W 150°00'9 8.7 230 / 61026.4 11.2 11.5
2015-May-29 01:00N 59°24' W 150°12'0 0.0 230 / 51026.5 11.4 8.2 9.6
2015-May-29 00:59N 59°24' W 150°12'9 8.7 220 / 61026.7 11.2 9.4
2015-May-29 00:00N 59°18' W 150°00'3 3.1 230 / 191026.7 5.4 1.0 8.4 6.0-8.0
2015-May-28 23:00N 59°18' W 149°54'0 0.0 240 / 231026.6 8.6 5.9 8.3
2015-May-28 22:59N 59°18' W 149°54'6 6.1 240 / 221026.9 8.5 8.5
2015-May-28 22:00N 59°12' W 149°54'3184.3 250 / 201027.6 9.5 6.1 8.5
2015-May-28 21:59N 59°12' W 149°48'9 8.7 250 / 191027.8 9.4 8.6
2015-May-28 21:00N 59°06' W 150°00'1111.0 260 / 201027.6 8.5 5.8 8.5
2015-May-28 20:00N 59°12' W 150°18'3184.3 250 / 181027.1 8.3 5.9 8.1
2015-May-28 19:59N 59°12' W 150°12'9 8.7 250 / 211027.4 8.6 8.1
2015-May-28 19:00N 59°18' W 150°24'9 8.6 240 / 141026.8 8.4 6.0 8.3
2015-May-28 18:00N 59°12' W 150°36'0 0.0 250 / 171026.9 9.0 6.1 6.9
2015-May-28 17:59N 59°12' W 150°36'6 6.1 250 / 161027.2 9.0 6.9
2015-May-28 17:00N 59°06' W 150°36'3184.9 250 / 201026.9 7.9 5.7 8.1
2015-May-28 16:59N 59°06' W 150°30'3 3.1 250 / 221027.0 7.9 8.0
2015-May-28 16:00N 59°06' W 150°24'6360.0 250 / 221027.4 7.8 5.6 8.1
2015-May-28 15:59N 59°00' W 150°24'9 8.6 250 / 211027.5 7.8 8.0
2015-May-28 14:59N 58°54' W 150°12'9 8.6 270 / 231028.1 7.8 8.4
2015-May-28 13:59N 58°48' W 150°24'9 8.6 270 / 221028.4 7.8 8.0
2015-May-28 12:59N 58°54' W 150°36'9 8.6 280 / 211028.3 7.8 8.1
2015-May-28 11:59N 59°00' W 150°48'12 4.1 270 / 241027.9 7.8 8.3
2015-May-28 08:59N 59°00' W 151°12'3 3.1 260 / 211027.7 7.9 7.5
2015-May-28 08:00N 59°00' W 151°06'6360.0 260 / 191027.2 8.1 4.9 8.3
2015-May-28 07:59N 58°54' W 151°06'9 8.8 270 / 191027.5 8.1 8.2
2015-May-28 07:00N 58°48' W 150°54'0 0.0 260 / 71027.0 8.0 6.3 8.1
2015-May-28 06:59N 58°48' W 150°54'1111.3 260 / 41027.3 8.0 8.2
2015-May-28 06:00N 58°42' W 150°36'3187.0 240 / 51027.110.8 0.5 8.2 6.3-8.3
2015-May-28 05:59N 58°42' W 150°42'3 3.2 240 / 61027.1 8.2 8.3
2015-May-28 05:00N 58°42' W 150°48'6360.0 220 / 51026.7 8.2 6.2 8.4
2015-May-28 04:59N 58°36' W 150°48'3 3.2 230 / 51026.9 8.2 8.3
2015-May-28 04:00N 58°36' W 150°54'1111.1 220 / 91026.8 8.2 6.0 8.7
2015-May-28 03:00N 58°42' W 151°12'3187.0 210 / 121026.7 8.3 4.7 8.6
2015-May-28 02:59N 58°42' W 151°06'9 8.8 220 / 111026.9 8.5 8.6
2015-May-28 02:00N 58°48' W 151°18'9 8.6 210 / 71026.6 8.2 5.3 7.9
2015-May-28 01:00N 58°54' W 151°30'0 0.0 260 / 81026.6 8.8 5.4 7.6
2015-May-28 00:59N 58°54' W 151°30'3 3.2 240 / 101026.8 8.5 7.7
2015-May-28 00:00N 58°54' W 151°36'1313.5 270 / 181026.7 9.1 4.3 7.8
2015-May-27 23:00N 59°06' W 151°48'6360.0 240 / 131026.9 8.8 3.8 7.3
2015-May-27 22:59N 59°00' W 151°48'1414.0 250 / 141027.2 8.7 7.3
2015-May-27 22:00N 59°06' W 152°12'1413.7 230 / 161026.4 8.3 3.6 7.6
2015-May-27 21:00N 59°00' W 151°48'6 6.0 230 / 131026.610.8 0.5 7.8 3.0-7.4
2015-May-27 20:00N 58°54' W 151°48'2010.1 260 / 141026.3 7.9 2.7 7.6
2015-May-27 18:00N 58°36' W 151°30'6 6.3 280 / 111026.2 7.8 4.0 7.4
2015-May-27 17:00N 58°36' W 151°18'0 0.0 290 / 61026.1 7.7 4.5 7.9
2015-May-27 16:59N 58°36' W 151°18'1413.8 280 / 71026.4 7.7 7.9
2015-May-27 16:00N 58°24' W 151°06'6 6.3 250 / 61026.1 7.3 5.5 7.5
2015-May-27 15:00N 58°24' W 151°18'3188.6 030 / 51025.910.8 0.5 8.0 5.1-8.0
2015-May-27 14:59N 58°24' W 151°24'3 3.2 020 / 51026.1 7.4 8.0
2015-May-27 14:00N 58°24' W 151°30'7 6.8 220 / 81026.0 7.3 5.6 7.8
2015-May-27 13:00N 58°18' W 151°24'0 0.0 210 / 111026.2 7.3 5.3 7.6
2015-May-27 12:59N 58°18' W 151°24'7 6.9 210 / 111026.4 7.3 7.8
2015-May-27 12:00N 58°12' W 151°30'1515.3 220 / 111026.3 7.2 5.8 7.4
2015-May-27 11:00N 58°24' W 151°48'6360.0 260 / 21026.1 7.2 5.5 7.1
2015-May-27 10:59N 58°18' W 151°48'7 6.9 260 / 21026.3 7.3 7.1
2015-May-27 10:00N 58°24' W 151°54'9 8.7 240 / 71026.1 7.3 3.8 7.0
2015-May-27 09:00N 58°30' W 151°42'7 6.8 310 / 91025.6 5.4 0.5 9.0 3.4-8.1
2015-May-27 08:00N 58°36' W 151°48'9 8.7 300 / 81025.5 8.0 2.9 7.9
2015-May-27 07:00N 58°42' W 152°00'9 8.6 260 / 51025.2 8.1 3.3 7.8
2015-May-27 06:00N 58°48' W 152°12'6 6.2 240 / 81024.6 8.1 3.7 7.5
2015-May-27 05:00N 58°48' W 152°24'7 6.8 180 / 71024.4 8.1 5.6 7.3
2015-May-27 04:00N 58°54' W 152°30'7 6.8 170 / 131024.1 8.2 5.8 7.4
2015-May-27 03:00N 58°48' W 152°36'0 0.0 170 / 121024.0 8.7 4.7 7.8
2015-May-27 02:59N 58°48' W 152°36'9 8.8 160 / 111024.2 8.6 7.8
2015-May-27 02:00N 58°42' W 152°48'3 3.1 200 / 101023.9 9.3 4.9 7.4
2015-May-27 01:00N 58°42' W 152°54'6360.0 240 / 131023.6 9.7 4.6 7.3
2015-May-27 00:59N 58°36' W 152°54'6 6.1 230 / 121023.8 10.1 7.4
2015-May-27 00:00N 58°30' W 152°54'1312.5 220 / 131023.8 5.4 0.510.5 4.0-7.8
2015-May-26 23:00N 58°30' W 153°18'1212.4 210 / 131023.3 8.0 4.1 7.8
2015-May-26 22:00N 58°18' W 153°24'6 6.3 210 / 161023.5 8.5 4.1 7.6
2015-May-26 21:00N 58°18' W 153°36'6360.0 220 / 151023.0 8.2 4.4 7.8
2015-May-26 20:59N 58°12' W 153°36'3 3.2 210 / 151023.2 8.3 7.9
2015-May-26 20:00N 58°12' W 153°42'1413.6 210 / 161022.9 8.0 4.2 7.5
2015-May-26 19:00N 58°00' W 153°54'7 6.8 220 / 131022.7 7.2 3.1 7.2
2015-May-26 18:00N 57°54' W 154°00'3191.3 220 / 91022.510.8 0.5 8.0 -7.0
2015-May-26 17:59N 57°54' W 154°06'3 3.2 220 / 81022.5 8.1 7.0
2015-May-26 17:00N 57°54' W 154°12'9 8.8 220 / 91022.5 7.4 3.5 7.6
2015-May-26 16:00N 57°48' W 154°24'9 8.8 210 / 81022.1 8.0 3.2 7.3
2015-May-26 15:00N 57°42' W 154°36'9 8.8 190 / 81021.8 6.6 7.1
2015-May-26 14:00N 57°36' W 154°48'0 0.0 160 / 81021.5 6.4 3.9 7.0
2015-May-26 13:59N 57°36' W 154°48'7 6.9 150 / 81021.7 6.3 6.9
2015-May-26 13:00N 57°30' W 154°42'3 3.2 140 / 81021.6 6.0 3.6 6.9
2015-May-26 12:00N 57°30' W 154°36'3193.4 140 / 91021.510.8 0.5 6.0 3.8-6.9
2015-May-26 11:59N 57°30' W 154°42'3 3.3 140 / 91021.7 6.1 6.9
2015-May-26 11:00N 57°30' W 154°48'3 3.2 160 / 71021.9 6.6 4.3 6.9
2015-May-26 10:00N 57°30' W 154°54'0 0.0 190 / 71021.6 6.8 3.9 6.9
2015-May-26 09:59N 57°30' W 154°54'0 0.0 190 / 91021.8 6.9 6.9
2015-May-26 09:00N 57°30' W 154°54'7 6.8 200 / 81021.5 7.0 3.6 6.9
2015-May-26 08:00N 57°36' W 155°00'0 0.0 190 / 71021.0 7.0 3.8 7.1
2015-May-26 07:00N 57°36' W 155°00'3 3.2 210 / 81020.9 7.0 3.8 7.3
2015-May-26 06:00N 57°36' W 155°06'3 3.2 210 / 91020.7 7.3 3.9 7.0
2015-May-26 05:00N 57°36' W 155°00'9 8.8 200 / 91020.7 7.7 4.0 7.2
2015-May-26 04:00N 57°42' W 155°12'7408.3 210 / 111020.4 8.0 4.7 7.9
2015-May-26 03:59N 57°36' W 155°06'7 6.9 210 / 111020.7 8.0 7.8
2015-May-26 03:00N 57°42' W 155°12'7408.3 220 / 101020.3 7.7 4.7 7.8
2015-May-26 02:59N 57°36' W 155°06'9 8.9 210 / 101020.5 7.9 7.8
2015-May-26 02:00N 57°42' W 155°18'3192.4 220 / 121020.3 7.4 4.4 7.8
2015-May-26 01:59N 57°42' W 155°12'3 3.3 220 / 121020.5 7.4 7.6
2015-May-26 01:00N 57°42' W 155°18'0 0.0 210 / 111020.3 8.0 5.0 7.6
2015-May-26 00:00N 57°42' W 155°18'7 6.8 220 / 111020.3 8.2 4.6 7.9
2015-May-25 23:00N 57°36' W 155°12'0 0.0 210 / 111020.2 7.8 4.1 7.8
2015-May-25 22:58N 57°36' W 155°12'7 7.0 200 / 101020.5 7.4 7.8
2015-May-25 22:00N 57°30' W 155°06'396.7 200 / 111019.9 7.5 4.2 7.3
2015-May-25 21:58N 57°30' W 155°00'25 8.4 200 / 121020.1 7.5 7.2
2015-May-25 19:00N 57°06' W 154°48'0 0.0 220 / 71019.1 7.0 5.0 6.9
2015-May-25 18:59N 57°06' W 154°48'7 6.9 240 / 71019.4 7.4 6.9
2015-May-25 18:00N 57°12' W 154°54'0 0.0 240 / 91018.6 6.5 4.5 6.8
2015-May-25 17:59N 57°12' W 154°54'9 9.0 240 / 81018.8 6.6 6.8
2015-May-25 17:00N 57°18' W 155°06'7409.3 230 / 111017.8 6.5 5.2 6.9
2015-May-25 16:59N 57°12' W 155°00'1413.9 220 / 111018.2 6.4 6.9
2015-May-25 16:00N 57°24' W 155°12'6360.0 160 / 41017.4 6.3 5.1 6.6
2015-May-25 15:59N 57°18' W 155°12'7 6.9 170 / 41017.7 6.2 6.6
2015-May-25 15:00N 57°24' W 155°18'0 0.0 210 / 71017.0 6.2 4.5 6.6
2015-May-25 14:59N 57°24' W 155°18'9 9.0 200 / 91017.1 6.2 6.6
2015-May-25 14:00N 57°30' W 155°30'7408.8 170 / 71016.7 6.1 4.5 6.8
2015-May-25 13:59N 57°24' W 155°24'10 9.9 180 / 61016.9 6.1 6.8
2015-May-25 13:00N 57°24' W 155°42'7409.1 190 / 111016.5 6.1 4.6 6.8
2015-May-25 12:59N 57°18' W 155°36'3 3.3 170 / 91016.6 6.1 6.8
2015-May-25 12:00N 57°18' W 155°30'6360.0 190 / 111016.6 6.7 4.7 6.7
2015-May-25 11:59N 57°12' W 155°30'3 3.3 200 / 131016.7 6.4 6.8
2015-May-25 11:00N 57°12' W 155°24'0 0.0 190 / 121016.6 6.8 4.8 6.8
2015-May-25 10:59N 57°12' W 155°24'7 6.9 190 / 111016.8 6.8 6.8
2015-May-25 10:00N 57°06' W 155°18'3195.5 190 / 121016.5 6.7 5.3 6.8
2015-May-25 09:59N 57°06' W 155°12'9 9.0 190 / 121016.7 6.7 6.8
2015-May-25 09:00N 57°00' W 155°00'3196.1 180 / 131016.6 5.4 0.5 7.5 5.4-6.9
2015-May-25 08:59N 57°00' W 155°06'3 3.3 180 / 121016.6 6.6 6.9
2015-May-25 08:00N 57°00' W 155°00'0 0.0 210 / 111016.4 6.6 5.2 6.8
2015-May-25 07:59N 57°00' W 155°00'12 6.1 210 / 121016.6 6.4 6.9
2015-May-25 06:00N 56°48' W 155°00'6360.0 230 / 81015.6 6.6 5.0 6.6
2015-May-25 05:59N 56°42' W 155°00'7 7.0 220 / 81015.9 6.6 6.6
2015-May-25 05:00N 56°48' W 155°06'3197.1 230 / 111015.3 6.6 5.7 6.8
2015-May-25 04:59N 56°48' W 155°00'9 9.0 230 / 101015.5 6.6 6.6
2015-May-25 04:00N 56°54' W 155°12'0 0.0 210 / 81015.2 6.6 5.9 6.9
2015-May-25 03:59N 56°54' W 155°12'0 0.0 220 / 71015.4 6.5 6.9
2015-May-25 03:00N 56°54' W 155°12'3196.6 190 / 51015.2 5.4 0.5 7.0 5.5-6.9
2015-May-25 02:59N 56°54' W 155°18'9 9.0 190 / 51015.2 6.7 6.9
2015-May-25 02:00N 57°00' W 155°30'3196.1 150 / 71015.4 6.9 5.9 6.9
2015-May-25 01:59N 57°00' W 155°24'1111.7 150 / 71015.6 6.9 6.9
2015-May-25 01:00N 57°06' W 155°42'3195.5 140 / 71015.8 7.0 5.6 6.9
2015-May-25 00:59N 57°06' W 155°36'7 6.9 140 / 71016.0 6.9 6.9
2015-May-25 00:00N 57°12' W 155°42'10 9.8 140 / 91015.9 5.4 0.5 8.0 5.4-6.8
2015-May-24 23:00N 57°12' W 156°00'7409.6 150 / 111016.1 6.8 5.5 6.8
2015-May-24 22:59N 57°06' W 155°54'3 3.3 150 / 111016.4 6.8 6.8
2015-May-24 22:00N 57°06' W 156°00'0 0.0 170 / 61016.4 7.0 5.5 6.8
2015-May-24 21:59N 57°06' W 156°00'7 6.9 170 / 61016.5 7.1 6.6
2015-May-24 21:00N 57°00' W 155°54'3196.1 150 / 81016.4 7.2 6.0 6.8
2015-May-24 20:59N 57°00' W 155°48'7 7.0 150 / 81016.6 7.1 6.8
2015-May-24 20:00N 56°54' W 155°42'0 0.0 140 / 61016.6 6.7 5.5 6.5
2015-May-24 19:59N 56°54' W 155°42'0 0.0 140 / 71016.7 6.8 6.5
2015-May-24 19:00N 56°54' W 155°42'7410.3 150 / 91016.6 6.7 5.3 6.5
2015-May-24 18:59N 56°48' W 155°36'7 6.7 140 / 71016.7 6.6 6.5
2015-May-24 18:00N 56°48' W 155°24'7 6.8 140 / 71016.5 6.5 5.3 6.5
2015-May-24 17:00N 56°42' W 155°18'0 0.0 150 / 71016.6 6.4 5.4 6.3
2015-May-24 16:59N 56°42' W 155°18'6 6.1 150 / 81016.8 6.4 6.3
2015-May-24 16:00N 56°36' W 155°18'3198.2 160 / 111016.4 6.6 5.6 6.4
2015-May-24 15:59N 56°36' W 155°12'9 9.1 160 / 101016.6 6.5 6.4
2015-May-24 15:00N 56°30' W 155°24'9 8.9 150 / 91016.2 6.7 5.5 6.4
2015-May-24 14:00N 56°36' W 155°36'0 0.0 170 / 101015.9 6.5 5.4 6.5
2015-May-24 13:59N 56°36' W 155°36'7 7.0 170 / 91016.1 6.6 6.5
2015-May-24 13:00N 56°42' W 155°42'0 0.0 180 / 131015.4 6.8 5.4 6.5
2015-May-24 12:59N 56°42' W 155°42'9 9.1 180 / 121015.7 6.8 6.5
2015-May-24 12:00N 56°48' W 155°54'7410.6 180 / 121015.3 6.8 5.3 6.4
2015-May-24 11:59N 56°42' W 155°48'9 9.1 170 / 131015.7 6.8 6.4
2015-May-24 11:00N 56°48' W 156°00'7 6.8 160 / 131015.5 6.5 5.3 6.4
2015-May-24 10:00N 56°54' W 156°06'9 8.9 190 / 141014.8 6.1 5.0 6.4
2015-May-24 09:00N 57°00' W 156°18'9 8.9 170 / 151014.4 6.6 5.2 6.4
2015-May-24 08:00N 56°54' W 156°30'3196.6 170 / 161014.0 6.8 5.7 6.3
2015-May-24 07:59N 56°54' W 156°24'3 3.3 180 / 181014.4 6.6 6.3
2015-May-24 07:00N 56°54' W 156°30'9 8.9 170 / 131013.4 6.8 6.2 6.4
2015-May-24 06:00N 56°48' W 156°18'7410.6 180 / 151012.8 6.9 6.3 6.5
2015-May-24 05:59N 56°42' W 156°12'3 3.3 180 / 141013.1 6.7 6.5
2015-May-24 05:00N 56°42' W 156°06'6360.0 160 / 201012.2 7.1 6.5 6.4
2015-May-24 04:59N 56°36' W 156°06'3 3.4 160 / 201012.4 7.1 6.4
2015-May-24 04:00N 56°36' W 156°00'9 8.9 150 / 201011.8 7.7 7.1 6.4
2015-May-24 03:00N 56°30' W 155°48'7 6.9 160 / 231011.7 7.1 6.3 6.6
2015-May-24 02:00N 56°24' W 155°42'3 3.3 150 / 231012.1 7.4 6.4 6.6
2015-May-24 01:00N 56°24' W 155°36'9 9.0 160 / 231012.2 6.9 6.0 6.5
2015-May-24 00:00N 56°18' W 155°48'3 3.3 150 / 231011.9 6.7 5.7 6.5
2015-May-23 23:00N 56°18' W 155°54'3199.7 150 / 241011.5 6.9 5.5 6.5
2015-May-23 22:59N 56°18' W 155°48'9 9.1 150 / 221011.7 6.9 6.5
2015-May-23 22:00N 56°24' W 156°00'3 3.3 150 / 231011.9 7.0 5.5 6.5
2015-May-23 21:00N 56°24' W 156°06'7 6.9 150 / 221011.7 7.0 5.5 6.4
2015-May-23 20:00N 56°30' W 156°12'9 8.9 150 / 191011.7 6.7 5.3 6.4
2015-May-23 19:00N 56°36' W 156°24'3 3.3 150 / 221011.1 6.8 5.3 6.6
2015-May-23 18:00N 56°36' W 156°30'9 8.9 160 / 251011.3 6.2 4.6 6.6
2015-May-23 17:00N 56°42' W 156°42'0 0.0 150 / 191011.4 6.5 4.9 6.3
2015-May-23 16:00N 56°42' W 156°42'3 3.3 140 / 211011.3 6.8 4.9 6.4
2015-May-23 15:00N 56°42' W 156°48'6360.0 150 / 231010.8 6.7 4.7 6.0
2015-May-23 14:59N 56°36' W 156°48'3 3.4 150 / 261011.1 6.7 6.0
2015-May-23 14:00N 56°36' W 156°54'9 8.9 140 / 181011.2 7.9 5.2 6.0
2015-May-23 13:00N 56°30' W 156°42'0 0.0 160 / 221011.1 6.8 4.6 6.3
2015-May-23 12:59N 56°30' W 156°42'9 9.1 150 / 211011.3 6.8 6.3
2015-May-23 12:00N 56°24' W 156°30'3 3.3 150 / 201012.0 7.0 4.6 6.5
2015-May-23 11:00N 56°24' W 156°24'7 6.9 170 / 211012.1 6.8 4.4 6.6
2015-May-23 10:00N 56°18' W 156°18'7 6.9 160 / 211012.3 7.1 5.3 6.5
2015-May-23 09:00N 56°12' W 156°12'9 9.0 180 / 201012.2 7.1 4.5 6.6
2015-May-23 08:00N 56°06' W 156°00'6 6.0 190 / 231012.2 7.1 4.3 6.6
2015-May-23 07:00N 56°12' W 156°00'6360.0 210 / 231010.5 7.0 4.6 6.6
2015-May-23 06:59N 56°06' W 156°00'12 4.2 210 / 191010.7 6.9 6.6
2015-May-23 04:00N 55°54' W 155°54'3 3.4 170 / 281008.4 7.3 5.7 6.4
2015-May-23 03:00N 55°54' W 156°00'9 9.0 150 / 241008.0 7.4 7.1 6.3
2015-May-23 02:00N 56°00' W 156°12'9 9.0 130 / 241009.0 7.3 7.1 6.4
2015-May-23 01:00N 56°06' W 156°24'7 6.9 120 / 231009.5 7.4 7.1 6.9
2015-May-23 00:00N 56°12' W 156°30'9 9.0 110 / 251010.7 7.5 7.1 6.6
2015-May-22 23:00N 56°18' W 156°42'9 9.0 100 / 241011.9 7.3 7.0 6.5
2015-May-22 22:00N 56°24' W 156°54'9 9.0 100 / 221013.0 7.4 6.8 6.5
2015-May-22 21:00N 56°18' W 157°06'7 6.7 110 / 191013.6 7.1 6.6 6.3
2015-May-22 20:00N 56°18' W 157°18'9 9.0 100 / 201014.5 7.2 6.8 6.3
2015-May-22 19:00N 56°12' W 157°06'9 9.0 110 / 151015.5 7.1 6.6 6.4
2015-May-22 18:00N 56°06' W 156°54'14 6.9 120 / 171016.3 2.2 0.5 7.0 6.5 6.4
2015-May-22 16:00N 55°54' W 156°42'1010.1 110 / 151016.3 7.0 6.6 6.3
2015-May-22 15:00N 55°54' W 156°24'7 6.9 130 / 111016.8 7.6 7.1 6.4
2015-May-22 14:00N 55°48' W 156°18'3 3.4 120 / 121017.2 7.0 6.6 6.6
2015-May-22 13:00N 55°48' W 156°12'9 9.0 110 / 141017.1 7.1 6.7 6.9
2015-May-22 12:00N 55°42' W 156°00'9 9.0 120 / 131017.8 7.1 6.7 6.9
2015-May-22 11:00N 55°36' W 155°48'7 6.9 120 / 161018.1 7.1 6.6 6.9
2015-May-22 10:00N 55°30' W 155°54'0 0.0 120 / 161018.4 7.2 6.7 6.9
2015-May-22 09:00N 55°30' W 155°54'1010.2 090 / 131018.5 5.4 1.0 8.0 7.0-6.8
2015-May-22 08:00N 55°30' W 156°12'9 9.1 110 / 151018.8 7.1 6.9 6.9
2015-May-22 07:00N 55°36' W 156°24'6 6.0 110 / 171018.6 7.1 6.8 6.5
2015-May-22 06:00N 55°42' W 156°24'9 9.0 100 / 131018.3 0.3 0.5 7.0 6.8-6.5
2015-May-22 05:00N 55°48' W 156°36'9 9.0 110 / 141018.2 7.0 6.8 6.4
2015-May-22 04:00N 55°54' W 156°48'3 3.4 100 / 131018.1 7.0 6.8 6.5
2015-May-22 03:00N 55°54' W 156°54'9 9.0 100 / 121018.2 7.0 6.8 6.6
2015-May-22 02:00N 56°00' W 157°06'9 9.0 110 / 121018.1 7.0 6.8 6.5
2015-May-22 01:00N 56°06' W 157°18'7 6.9 100 / 111018.6 7.0 7.0 6.5
2015-May-22 00:00N 56°12' W 157°24'3 3.3 100 / 121018.3 7.1 6.8 6.3
2015-May-21 23:00N 56°12' W 157°30'9 9.0 110 / 151018.1 7.0 6.8 6.1
2015-May-21 22:00N 56°06' W 157°42'9 9.0 100 / 111017.8 7.1 6.8 6.2
2015-May-21 21:00N 56°00' W 157°30'7 6.9 090 / 121017.6 7.1 7.0 6.3
2015-May-21 20:00N 55°54' W 157°24'7 6.7 090 / 111017.4 6.9 6.8 6.2
2015-May-21 19:00N 55°54' W 157°12'9 9.0 100 / 101016.9 6.9 6.8 6.5
2015-May-21 18:00N 55°48' W 157°00'1413.8 100 / 101016.6 6.9 6.7 6.3
2015-May-21 17:00N 55°36' W 156°48'9 9.1 130 / 101016.4 6.8 6.6 6.6
2015-May-21 16:00N 55°30' W 156°36'0 0.0 120 / 111015.7 6.9 6.7 6.3
2015-May-21 15:00N 55°30' W 156°36'9 9.1 110 / 111014.8 6.9 6.8 6.3
2015-May-21 14:00N 55°24' W 156°24'9 9.1 130 / 121014.6 6.9 6.7 6.6
2015-May-21 13:00N 55°18' W 156°12'6 6.0 130 / 111014.4 6.9 6.9 6.6
2015-May-21 12:00N 55°12' W 156°12'7 6.8 140 / 131013.8 2.2 0.5 6.6 6.6-6.5
2015-May-21 11:00N 55°12' W 156°24'9 9.1 140 / 91013.8 6.7 6.5 6.6
2015-May-21 10:00N 55°18' W 156°36'7 6.9 170 / 51013.6 6.7 6.5 6.2
2015-May-21 09:00N 55°24' W 156°42'3 3.4 160 / 41013.2 5.4 6.6 6.1
2015-May-21 08:00N 55°24' W 156°48'9 9.2 190 / 71013.1 6.5 6.3 6.2
2015-May-21 07:01N 55°30' W 157°00'7413.6 170 / 61012.7 6.5 6.3
2015-May-21 07:00N 55°36' W 157°06'3 3.4 160 / 51012.3 6.5 6.3 6.3
2015-May-21 06:01N 55°36' W 157°12'7413.4 150 / 51012.3 6.5 6.5
2015-May-21 06:00N 55°42' W 157°18'0 0.0 160 / 51012.0 6.5 6.2 6.5
2015-May-21 05:00N 55°42' W 157°18'9 9.0 170 / 71011.6 6.6 6.3 6.5
2015-May-21 04:00N 55°48' W 157°30'1212.5 160 / 71011.0 6.7 6.4 6.4
2015-May-21 03:00N 56°00' W 157°36'1211.7 160 / 91010.5 0.0 0.5 7.1 6.3-6.2
2015-May-21 02:00N 56°06' W 157°54'1211.7 130 / 91010.3 6.3 5.8 5.4
2015-May-21 01:00N 56°12' W 158°12'3200.3 150 / 71009.8 6.9 6.4 6.0
2015-May-21 00:59N 56°12' W 158°06'0 0.0 130 / 51010.1 6.7 6.2
2015-May-21 00:00N 56°12' W 158°06'3 3.3 150 / 91009.7 2.2 7.4 6.9-6.0
2015-May-20 23:00N 56°12' W 158°12'0 0.0 150 / 81009.5 6.9 6.3 6.2
2015-May-20 22:00N 56°12' W 158°12'0 0.0 160 / 71009.2 7.3 6.9 5.9
2015-May-20 21:00N 56°12' W 158°12'0 0.0 180 / 51008.9 7.1 6.5 6.1
2015-May-20 20:00N 56°12' W 158°12'   170 / 51008.6 7.1 6.5 5.9

Dump ship's entire track history